BCS421 EDDP-LROP
Flight info
| Callsign | BCS421 |
|---|---|
| Flight time | 1h 37m |
| Altitude | 35000 |
| Route | DRN2Q DRN Z21 OMELO DCT EVIKU DCT BNO DCT ODNEM DCT BERVA DCT ERGOM DCT TEGRI DCT NEKUL DCT LAMIT DCT TOSVI |
| Aircraft | B77L/H-SDE1E2E3FGHIJ2J3J4J5M1RWXY/LB1D1 |
Departure
| Time | 2026-05-08 06:10 |
|---|---|
| Airport | Leipzig/Halle Airport (EDDP) |
Arrival
| Time | 2026-05-08 07:47 |
|---|---|
| Airport | Bucharest Henri Coandă International Airport (LROP) |
| Time | Latitude | Longitude | Altitude | Speed | Heading |
|---|---|---|---|---|---|
| 2026-05-08 05:43 | 51.40842 | 12.24529 | 469 ft | 0 kts | 266° |
| 2026-05-08 05:59 | 51.40843 | 12.24541 | 467 ft | 2 kts | 266° |
| 2026-05-08 05:59 | 51.40844 | 12.24574 | 466 ft | 5 kts | 266° |
| 2026-05-08 06:00 | 51.40846 | 12.24617 | 463 ft | 4 kts | 272° |
| 2026-05-08 06:00 | 51.40836 | 12.24656 | 465 ft | 4 kts | 324° |
| 2026-05-08 06:00 | 51.40811 | 12.24673 | 466 ft | 4 kts | 350° |
| 2026-05-08 06:00 | 51.40802 | 12.24675 | 467 ft | 0 kts | 357° |
| 2026-05-08 06:02 | 51.40812 | 12.24674 | 468 ft | 2 kts | 357° |
| 2026-05-08 06:03 | 51.40832 | 12.24673 | 469 ft | 3 kts | 358° |
| 2026-05-08 06:03 | 51.40856 | 12.24671 | 469 ft | 3 kts | 358° |
| 2026-05-08 06:03 | 51.40879 | 12.24670 | 470 ft | 3 kts | 358° |
| 2026-05-08 06:03 | 51.40903 | 12.24668 | 470 ft | 4 kts | 357° |
| 2026-05-08 06:04 | 51.40956 | 12.24661 | 468 ft | 9 kts | 355° |
| 2026-05-08 06:04 | 51.41019 | 12.24653 | 470 ft | 9 kts | 355° |
| 2026-05-08 06:04 | 51.41082 | 12.24632 | 469 ft | 9 kts | 335° |
| 2026-05-08 06:04 | 51.41134 | 12.24573 | 470 ft | 9 kts | 318° |
| 2026-05-08 06:05 | 51.41174 | 12.24453 | 472 ft | 16 kts | 276° |
| 2026-05-08 06:05 | 51.41167 | 12.24228 | 471 ft | 22 kts | 266° |
| 2026-05-08 06:05 | 51.41156 | 12.23979 | 476 ft | 23 kts | 263° |
| 2026-05-08 06:05 | 51.41142 | 12.23721 | 472 ft | 24 kts | 266° |
| 2026-05-08 06:06 | 51.41131 | 12.23457 | 473 ft | 24 kts | 266° |
| 2026-05-08 06:06 | 51.41118 | 12.23186 | 470 ft | 26 kts | 265° |
| 2026-05-08 06:06 | 51.41103 | 12.22878 | 467 ft | 29 kts | 265° |
| 2026-05-08 06:06 | 51.41088 | 12.22559 | 465 ft | 29 kts | 265° |
| 2026-05-08 06:07 | 51.41072 | 12.22242 | 464 ft | 29 kts | 265° |
| 2026-05-08 06:07 | 51.41058 | 12.21928 | 463 ft | 24 kts | 266° |
| 2026-05-08 06:07 | 51.41046 | 12.21667 | 464 ft | 24 kts | 265° |
| 2026-05-08 06:07 | 51.41033 | 12.21405 | 457 ft | 24 kts | 265° |
| 2026-05-08 06:08 | 51.41021 | 12.21144 | 453 ft | 24 kts | 266° |
| 2026-05-08 06:08 | 51.41009 | 12.20870 | 445 ft | 23 kts | 266° |
| 2026-05-08 06:08 | 51.41002 | 12.20712 | 430 ft | 15 kts | 265° |
| 2026-05-08 06:08 | 51.41003 | 12.20530 | 427 ft | 17 kts | 293° |
| 2026-05-08 06:09 | 51.41112 | 12.20496 | 432 ft | 17 kts | 6° |
| 2026-05-08 06:09 | 51.41167 | 12.20557 | 432 ft | 11 kts | 68° |
| 2026-05-08 06:09 | 51.41176 | 12.20759 | 433 ft | 33 kts | 88° |
| 2026-05-08 06:09 | 51.41209 | 12.21490 | 457 ft | 101 kts | 85° |
| 2026-05-08 06:10 | 51.41277 | 12.22963 | 466 ft | 161 kts | 85° |
| 2026-05-08 06:10 | 51.41391 | 12.24919 | 798 ft | 180 kts | 83° |
| 2026-05-08 06:10 | 51.41527 | 12.26944 | 1471 ft | 185 kts | 84° |
| 2026-05-08 06:10 | 51.41638 | 12.28997 | 2285 ft | 183 kts | 86° |
| 2026-05-08 06:11 | 51.41698 | 12.31014 | 3088 ft | 183 kts | 87° |
| 2026-05-08 06:11 | 51.41768 | 12.33155 | 3527 ft | 210 kts | 86° |
| 2026-05-08 06:11 | 51.41873 | 12.35693 | 3810 ft | 246 kts | 85° |
| 2026-05-08 06:11 | 51.41993 | 12.38482 | 4673 ft | 255 kts | 85° |
| 2026-05-08 06:12 | 51.42120 | 12.41358 | 5671 ft | 262 kts | 85° |
| 2026-05-08 06:12 | 51.42253 | 12.44291 | 6570 ft | 267 kts | 85° |
| 2026-05-08 06:12 | 51.42389 | 12.47287 | 7083 ft | 271 kts | 85° |
| 2026-05-08 06:12 | 51.42526 | 12.50298 | 7624 ft | 269 kts | 85° |
| 2026-05-08 06:13 | 51.42662 | 12.53321 | 8580 ft | 275 kts | 85° |
| 2026-05-08 06:13 | 51.42647 | 12.56396 | 9425 ft | 281 kts | 102° |
| 2026-05-08 06:13 | 51.41841 | 12.59269 | 10257 ft | 286 kts | 121° |
| 2026-05-08 06:13 | 51.40746 | 12.62036 | 10837 ft | 304 kts | 122° |
| 2026-05-08 06:14 | 51.39547 | 12.65030 | 11077 ft | 335 kts | 122° |
| 2026-05-08 06:14 | 51.38231 | 12.68309 | 11302 ft | 364 kts | 122° |
| 2026-05-08 06:14 | 51.36853 | 12.71743 | 11955 ft | 377 kts | 122° |
| 2026-05-08 06:14 | 51.35419 | 12.75324 | 12817 ft | 386 kts | 123° |
| 2026-05-08 06:15 | 51.33950 | 12.78998 | 13718 ft | 394 kts | 123° |
| 2026-05-08 06:15 | 51.32462 | 12.82725 | 14573 ft | 400 kts | 123° |
| 2026-05-08 06:15 | 51.30955 | 12.86499 | 15449 ft | 404 kts | 123° |
| 2026-05-08 06:15 | 51.29432 | 12.90311 | 16351 ft | 408 kts | 123° |
| 2026-05-08 06:16 | 51.28412 | 12.92861 | 16917 ft | 412 kts | 123° |
| 2026-05-08 06:16 | 51.26861 | 12.96737 | 17763 ft | 417 kts | 123° |
| 2026-05-08 06:16 | 51.24767 | 13.01958 | 18781 ft | 425 kts | 123° |
| 2026-05-08 06:16 | 51.23164 | 13.05950 | 19511 ft | 429 kts | 123° |
| 2026-05-08 06:17 | 51.20439 | 13.12723 | 20743 ft | 436 kts | 123° |
| 2026-05-08 06:17 | 51.18791 | 13.16813 | 21460 ft | 441 kts | 123° |
| 2026-05-08 06:17 | 51.17142 | 13.20893 | 22133 ft | 446 kts | 123° |
| 2026-05-08 06:18 | 51.15459 | 13.25091 | 22822 ft | 451 kts | 123° |
| 2026-05-08 06:18 | 51.13775 | 13.29335 | 23498 ft | 455 kts | 123° |
| 2026-05-08 06:18 | 51.12076 | 13.33630 | 24084 ft | 460 kts | 123° |
| 2026-05-08 06:18 | 51.10362 | 13.37955 | 24650 ft | 464 kts | 123° |
| 2026-05-08 06:19 | 51.08627 | 13.42321 | 25206 ft | 469 kts | 123° |
| 2026-05-08 06:19 | 51.06874 | 13.46720 | 25762 ft | 473 kts | 123° |
| 2026-05-08 06:19 | 51.05102 | 13.51155 | 26308 ft | 477 kts | 123° |
| 2026-05-08 06:19 | 51.03309 | 13.55636 | 26841 ft | 481 kts | 123° |
| 2026-05-08 06:20 | 51.01520 | 13.60096 | 27351 ft | 485 kts | 123° |
| 2026-05-08 06:20 | 50.99700 | 13.64636 | 27859 ft | 489 kts | 123° |
| 2026-05-08 06:20 | 50.97869 | 13.69211 | 28349 ft | 493 kts | 123° |
| 2026-05-08 06:20 | 50.96024 | 13.73822 | 28819 ft | 497 kts | 123° |
| 2026-05-08 06:21 | 50.94157 | 13.78471 | 29291 ft | 501 kts | 123° |
| 2026-05-08 06:21 | 50.92210 | 13.83065 | 29750 ft | 504 kts | 127° |
| 2026-05-08 06:21 | 50.90056 | 13.87458 | 30273 ft | 505 kts | 129° |
| 2026-05-08 06:21 | 50.87896 | 13.91773 | 30813 ft | 503 kts | 129° |
| 2026-05-08 06:22 | 50.85724 | 13.96161 | 31397 ft | 501 kts | 129° |
| 2026-05-08 06:22 | 50.83540 | 14.00354 | 31888 ft | 500 kts | 133° |
| 2026-05-08 06:22 | 50.81093 | 14.04248 | 32362 ft | 499 kts | 139° |
| 2026-05-08 06:22 | 50.78519 | 14.07921 | 32852 ft | 498 kts | 140° |
| 2026-05-08 06:23 | 50.75936 | 14.11568 | 33336 ft | 497 kts | 140° |
| 2026-05-08 06:23 | 50.73358 | 14.15212 | 33807 ft | 497 kts | 140° |
| 2026-05-08 06:23 | 50.70790 | 14.18864 | 34231 ft | 497 kts | 139° |
| 2026-05-08 06:23 | 50.68234 | 14.22519 | 34612 ft | 496 kts | 139° |
| 2026-05-08 06:24 | 50.65680 | 14.26180 | 34976 ft | 495 kts | 139° |
| 2026-05-08 06:24 | 50.63124 | 14.29844 | 35155 ft | 499 kts | 140° |
| 2026-05-08 06:24 | 50.57974 | 14.37211 | 35112 ft | 498 kts | 140° |
| 2026-05-08 06:25 | 50.52891 | 14.44457 | 35107 ft | 494 kts | 140° |
| 2026-05-08 06:25 | 50.47800 | 14.51688 | 35114 ft | 493 kts | 140° |
| 2026-05-08 06:26 | 50.42946 | 14.59315 | 35110 ft | 494 kts | 134° |
| 2026-05-08 06:26 | 50.38309 | 14.67295 | 35108 ft | 496 kts | 134° |
| 2026-05-08 06:27 | 50.33651 | 14.75299 | 35102 ft | 497 kts | 134° |
| 2026-05-08 06:27 | 50.28965 | 14.83272 | 35101 ft | 498 kts | 135° |
| 2026-05-08 06:28 | 50.24256 | 14.91232 | 35095 ft | 499 kts | 135° |
| 2026-05-08 06:28 | 50.19568 | 14.99131 | 35095 ft | 499 kts | 135° |
| 2026-05-08 06:29 | 50.14811 | 15.07120 | 35090 ft | 499 kts | 135° |
| 2026-05-08 06:29 | 50.10109 | 15.14997 | 35086 ft | 499 kts | 135° |
| 2026-05-08 06:30 | 50.05367 | 15.22916 | 35105 ft | 499 kts | 135° |
| 2026-05-08 06:30 | 50.00621 | 15.30816 | 35090 ft | 499 kts | 135° |
| 2026-05-08 06:31 | 49.95893 | 15.38664 | 35083 ft | 499 kts | 135° |
| 2026-05-08 06:31 | 49.91147 | 15.46514 | 35091 ft | 498 kts | 135° |
| 2026-05-08 06:32 | 49.86387 | 15.54365 | 35098 ft | 498 kts | 135° |
| 2026-05-08 06:32 | 49.81632 | 15.62183 | 35090 ft | 498 kts | 136° |
| 2026-05-08 06:33 | 49.76868 | 15.69992 | 35090 ft | 498 kts | 136° |
| 2026-05-08 06:33 | 49.72130 | 15.77734 | 35091 ft | 498 kts | 136° |
| 2026-05-08 06:34 | 49.67351 | 15.85521 | 35083 ft | 499 kts | 136° |
| 2026-05-08 06:34 | 49.62574 | 15.93280 | 35079 ft | 499 kts | 136° |
| 2026-05-08 06:35 | 49.57792 | 16.01022 | 35073 ft | 499 kts | 136° |
| 2026-05-08 06:35 | 49.53024 | 16.08721 | 35073 ft | 499 kts | 136° |
| 2026-05-08 06:36 | 49.48227 | 16.16441 | 35079 ft | 499 kts | 136° |
| 2026-05-08 06:36 | 49.43419 | 16.24157 | 35069 ft | 499 kts | 136° |
| 2026-05-08 06:37 | 49.38612 | 16.31848 | 35074 ft | 499 kts | 137° |
| 2026-05-08 06:37 | 49.33789 | 16.39540 | 35067 ft | 499 kts | 137° |
| 2026-05-08 06:38 | 49.28969 | 16.47206 | 35075 ft | 499 kts | 137° |
| 2026-05-08 06:38 | 49.24169 | 16.54818 | 35074 ft | 499 kts | 137° |
| 2026-05-08 06:39 | 49.19337 | 16.62460 | 35071 ft | 499 kts | 137° |
| 2026-05-08 06:39 | 49.14506 | 16.70078 | 35071 ft | 499 kts | 137° |
| 2026-05-08 06:40 | 49.09704 | 16.77773 | 35076 ft | 500 kts | 136° |
| 2026-05-08 06:40 | 49.04961 | 16.85429 | 35073 ft | 500 kts | 137° |
| 2026-05-08 06:41 | 49.00174 | 16.93112 | 35065 ft | 500 kts | 137° |
| 2026-05-08 06:41 | 48.95371 | 17.00784 | 35075 ft | 500 kts | 137° |
| 2026-05-08 06:42 | 48.90567 | 17.08434 | 35078 ft | 500 kts | 137° |
| 2026-05-08 06:42 | 48.85759 | 17.16071 | 35061 ft | 500 kts | 137° |
| 2026-05-08 06:43 | 48.80978 | 17.23675 | 35064 ft | 500 kts | 137° |
| 2026-05-08 06:43 | 48.76179 | 17.31325 | 35061 ft | 500 kts | 137° |
| 2026-05-08 06:44 | 48.71384 | 17.38945 | 35055 ft | 500 kts | 137° |
| 2026-05-08 06:44 | 48.66577 | 17.46556 | 35066 ft | 500 kts | 137° |
| 2026-05-08 06:45 | 48.61758 | 17.54163 | 35067 ft | 500 kts | 138° |
| 2026-05-08 06:45 | 48.56891 | 17.61587 | 35065 ft | 499 kts | 140° |
| 2026-05-08 06:46 | 48.51945 | 17.68941 | 35068 ft | 499 kts | 140° |
| 2026-05-08 06:46 | 48.46995 | 17.76298 | 35063 ft | 499 kts | 140° |
| 2026-05-08 06:47 | 48.42047 | 17.83668 | 35069 ft | 500 kts | 140° |
| 2026-05-08 06:47 | 48.37094 | 17.91036 | 35051 ft | 500 kts | 140° |
| 2026-05-08 06:48 | 48.32172 | 17.98338 | 35048 ft | 500 kts | 140° |
| 2026-05-08 06:48 | 48.27204 | 18.05683 | 35043 ft | 500 kts | 140° |
| 2026-05-08 06:49 | 48.22228 | 18.13018 | 35201 ft | 504 kts | 140° |
| 2026-05-08 06:49 | 48.19719 | 18.16706 | 35484 ft | 505 kts | 140° |
| 2026-05-08 06:49 | 48.17209 | 18.20393 | 35791 ft | 506 kts | 140° |
| 2026-05-08 06:50 | 48.14686 | 18.24097 | 36122 ft | 505 kts | 140° |
| 2026-05-08 06:50 | 48.12169 | 18.27782 | 36145 ft | 510 kts | 140° |
| 2026-05-08 06:50 | 48.07120 | 18.35164 | 36100 ft | 506 kts | 140° |
| 2026-05-08 06:51 | 48.02149 | 18.42417 | 35901 ft | 498 kts | 140° |
| 2026-05-08 06:51 | 47.99670 | 18.46021 | 35644 ft | 497 kts | 140° |
| 2026-05-08 06:51 | 47.97183 | 18.49631 | 35300 ft | 499 kts | 140° |
| 2026-05-08 06:52 | 47.94690 | 18.53243 | 35037 ft | 500 kts | 141° |
| 2026-05-08 06:52 | 47.92197 | 18.56853 | 35052 ft | 500 kts | 141° |
| 2026-05-08 06:52 | 47.87194 | 18.64085 | 35043 ft | 501 kts | 141° |
| 2026-05-08 06:53 | 47.82182 | 18.71311 | 35039 ft | 501 kts | 141° |
| 2026-05-08 06:53 | 47.77342 | 18.78701 | 35038 ft | 502 kts | 137° |
| 2026-05-08 06:54 | 47.72595 | 18.86347 | 35033 ft | 503 kts | 137° |
| 2026-05-08 06:54 | 47.67850 | 18.93986 | 35055 ft | 503 kts | 137° |
| 2026-05-08 06:55 | 47.63090 | 19.01584 | 35059 ft | 503 kts | 137° |
| 2026-05-08 06:55 | 47.58318 | 19.09158 | 35070 ft | 502 kts | 138° |
| 2026-05-08 06:56 | 47.53543 | 19.16710 | 35069 ft | 503 kts | 138° |
| 2026-05-08 06:56 | 47.48757 | 19.24260 | 35075 ft | 503 kts | 138° |
| 2026-05-08 06:57 | 47.43959 | 19.31807 | 35071 ft | 503 kts | 138° |
| 2026-05-08 06:57 | 47.39184 | 19.39298 | 35074 ft | 504 kts | 138° |
| 2026-05-08 06:58 | 47.34371 | 19.46827 | 35062 ft | 505 kts | 138° |
| 2026-05-08 06:58 | 47.29535 | 19.54370 | 35052 ft | 506 kts | 139° |
| 2026-05-08 06:59 | 47.24697 | 19.61897 | 35047 ft | 506 kts | 139° |
| 2026-05-08 06:59 | 47.19847 | 19.69420 | 35051 ft | 506 kts | 139° |
| 2026-05-08 07:00 | 47.15003 | 19.76912 | 35058 ft | 507 kts | 139° |
| 2026-05-08 07:00 | 47.10130 | 19.84429 | 35065 ft | 507 kts | 139° |
| 2026-05-08 07:01 | 47.05254 | 19.91927 | 35065 ft | 507 kts | 139° |
| 2026-05-08 07:01 | 47.00408 | 19.99359 | 35061 ft | 507 kts | 139° |
| 2026-05-08 07:02 | 46.95532 | 20.06817 | 35044 ft | 506 kts | 139° |
| 2026-05-08 07:02 | 46.90656 | 20.14252 | 35059 ft | 506 kts | 139° |
| 2026-05-08 07:03 | 46.85782 | 20.21664 | 35049 ft | 505 kts | 139° |
| 2026-05-08 07:03 | 46.80936 | 20.29014 | 35045 ft | 504 kts | 139° |
| 2026-05-08 07:04 | 46.76071 | 20.36371 | 35034 ft | 503 kts | 139° |
| 2026-05-08 07:04 | 46.71206 | 20.43708 | 35034 ft | 502 kts | 139° |
| 2026-05-08 07:05 | 46.67159 | 20.49796 | 35037 ft | 502 kts | 139° |
| 2026-05-08 07:05 | 46.61502 | 20.58282 | 35035 ft | 501 kts | 139° |
| 2026-05-08 07:06 | 46.57432 | 20.64372 | 35038 ft | 501 kts | 140° |
| 2026-05-08 07:06 | 46.52597 | 20.71587 | 35038 ft | 500 kts | 140° |
| 2026-05-08 07:07 | 46.47731 | 20.78829 | 35042 ft | 501 kts | 140° |
| 2026-05-08 07:07 | 46.42866 | 20.86051 | 35044 ft | 501 kts | 140° |
| 2026-05-08 07:08 | 46.37988 | 20.93271 | 35048 ft | 501 kts | 140° |
| 2026-05-08 07:08 | 46.33101 | 21.00489 | 35057 ft | 501 kts | 140° |
| 2026-05-08 07:09 | 46.28242 | 21.07645 | 35069 ft | 501 kts | 139° |
| 2026-05-08 07:09 | 46.23719 | 21.15475 | 35072 ft | 508 kts | 130° |
| 2026-05-08 07:10 | 46.19688 | 21.23780 | 35076 ft | 508 kts | 129° |
| 2026-05-08 07:10 | 46.15632 | 21.32132 | 35070 ft | 507 kts | 130° |
| 2026-05-08 07:11 | 46.11566 | 21.40390 | 35068 ft | 506 kts | 130° |
| 2026-05-08 07:11 | 46.07514 | 21.48553 | 35058 ft | 505 kts | 130° |
| 2026-05-08 07:12 | 46.03500 | 21.56612 | 35052 ft | 504 kts | 130° |
| 2026-05-08 07:12 | 45.99435 | 21.64755 | 35046 ft | 503 kts | 130° |
| 2026-05-08 07:13 | 45.95349 | 21.72919 | 35055 ft | 502 kts | 130° |
| 2026-05-08 07:13 | 45.91264 | 21.81057 | 35052 ft | 501 kts | 130° |
| 2026-05-08 07:14 | 45.87173 | 21.89184 | 35044 ft | 501 kts | 130° |
| 2026-05-08 07:14 | 45.83112 | 21.97227 | 35049 ft | 501 kts | 130° |
| 2026-05-08 07:15 | 45.79012 | 22.05325 | 35046 ft | 500 kts | 130° |
| 2026-05-08 07:15 | 45.74921 | 22.13383 | 35055 ft | 500 kts | 130° |
| 2026-05-08 07:16 | 45.70816 | 22.21445 | 35050 ft | 500 kts | 130° |
| 2026-05-08 07:16 | 45.66713 | 22.29481 | 35057 ft | 501 kts | 130° |
| 2026-05-08 07:17 | 45.62594 | 22.37525 | 35057 ft | 501 kts | 130° |
| 2026-05-08 07:17 | 45.58470 | 22.45558 | 35061 ft | 502 kts | 130° |
| 2026-05-08 07:18 | 45.54364 | 22.53537 | 35060 ft | 502 kts | 130° |
| 2026-05-08 07:18 | 45.50228 | 22.61543 | 35056 ft | 502 kts | 130° |
| 2026-05-08 07:19 | 45.46074 | 22.69554 | 35063 ft | 501 kts | 130° |
| 2026-05-08 07:19 | 45.41922 | 22.77541 | 35058 ft | 501 kts | 130° |
| 2026-05-08 07:20 | 45.37795 | 22.85462 | 35052 ft | 501 kts | 130° |
| 2026-05-08 07:20 | 45.33644 | 22.93407 | 35056 ft | 500 kts | 130° |
| 2026-05-08 07:21 | 45.29492 | 23.01331 | 35064 ft | 499 kts | 130° |
| 2026-05-08 07:21 | 45.25344 | 23.09229 | 35076 ft | 499 kts | 130° |
| 2026-05-08 07:22 | 45.21189 | 23.17116 | 35076 ft | 499 kts | 130° |
| 2026-05-08 07:22 | 45.17024 | 23.25003 | 35051 ft | 499 kts | 130° |
| 2026-05-08 07:23 | 45.12897 | 23.32929 | 35061 ft | 501 kts | 126° |
| 2026-05-08 07:23 | 45.09716 | 23.41695 | 34919 ft | 504 kts | 114° |
| 2026-05-08 07:24 | 45.08592 | 23.46370 | 34636 ft | 498 kts | 108° |
| 2026-05-08 07:24 | 45.07700 | 23.51088 | 33992 ft | 497 kts | 107° |
| 2026-05-08 07:24 | 45.06834 | 23.55860 | 33089 ft | 501 kts | 106° |
| 2026-05-08 07:24 | 45.05972 | 23.60639 | 32316 ft | 501 kts | 106° |
| 2026-05-08 07:25 | 45.05101 | 23.65412 | 31669 ft | 499 kts | 106° |
| 2026-05-08 07:25 | 45.04223 | 23.70143 | 31127 ft | 495 kts | 106° |
| 2026-05-08 07:25 | 45.02479 | 23.79369 | 29782 ft | 472 kts | 107° |
| 2026-05-08 07:26 | 45.01645 | 23.83733 | 29024 ft | 456 kts | 107° |
| 2026-05-08 07:26 | 45.00817 | 23.88050 | 28566 ft | 452 kts | 107° |
| 2026-05-08 07:26 | 44.99992 | 23.92328 | 28073 ft | 451 kts | 107° |
| 2026-05-08 07:26 | 44.99161 | 23.96621 | 27592 ft | 453 kts | 107° |
| 2026-05-08 07:27 | 44.98330 | 24.00911 | 26986 ft | 453 kts | 107° |
| 2026-05-08 07:27 | 44.97499 | 24.05196 | 26380 ft | 452 kts | 107° |
| 2026-05-08 07:27 | 44.96665 | 24.09496 | 25797 ft | 451 kts | 107° |
| 2026-05-08 07:27 | 44.95835 | 24.13764 | 25271 ft | 449 kts | 107° |
| 2026-05-08 07:28 | 44.95022 | 24.17945 | 24835 ft | 445 kts | 107° |
| 2026-05-08 07:28 | 44.94204 | 24.22144 | 24408 ft | 441 kts | 107° |
| 2026-05-08 07:28 | 44.93375 | 24.26299 | 23961 ft | 431 kts | 109° |
| 2026-05-08 07:28 | 44.92493 | 24.30252 | 23018 ft | 417 kts | 110° |
| 2026-05-08 07:29 | 44.91572 | 24.34104 | 21835 ft | 414 kts | 111° |
| 2026-05-08 07:29 | 44.90633 | 24.37954 | 20876 ft | 414 kts | 111° |
| 2026-05-08 07:29 | 44.89703 | 24.41771 | 20096 ft | 408 kts | 110° |
| 2026-05-08 07:29 | 44.88805 | 24.45492 | 19397 ft | 402 kts | 110° |
| 2026-05-08 07:30 | 44.87917 | 24.49208 | 18672 ft | 396 kts | 110° |
| 2026-05-08 07:30 | 44.87046 | 24.52872 | 17883 ft | 392 kts | 109° |
| 2026-05-08 07:30 | 44.86194 | 24.56468 | 17357 ft | 380 kts | 109° |
| 2026-05-08 07:30 | 44.85373 | 24.59938 | 16906 ft | 367 kts | 109° |
| 2026-05-08 07:31 | 44.84574 | 24.63309 | 16381 ft | 359 kts | 109° |
| 2026-05-08 07:31 | 44.83780 | 24.66642 | 15547 ft | 360 kts | 109° |
| 2026-05-08 07:31 | 44.82978 | 24.69998 | 14688 ft | 362 kts | 109° |
| 2026-05-08 07:31 | 44.82179 | 24.73357 | 13990 ft | 360 kts | 109° |
| 2026-05-08 07:32 | 44.81394 | 24.76653 | 13559 ft | 351 kts | 109° |
| 2026-05-08 07:32 | 44.80624 | 24.79868 | 13133 ft | 354 kts | 109° |
| 2026-05-08 07:32 | 44.79825 | 24.83203 | 12722 ft | 363 kts | 109° |
| 2026-05-08 07:32 | 44.79016 | 24.86582 | 12278 ft | 365 kts | 109° |
| 2026-05-08 07:33 | 44.78205 | 24.89954 | 11848 ft | 362 kts | 109° |
| 2026-05-08 07:33 | 44.77401 | 24.93297 | 11427 ft | 358 kts | 109° |
| 2026-05-08 07:33 | 44.76606 | 24.96598 | 11017 ft | 354 kts | 109° |
| 2026-05-08 07:33 | 44.75822 | 24.99853 | 10726 ft | 347 kts | 109° |
| 2026-05-08 07:34 | 44.75059 | 25.03008 | 10562 ft | 335 kts | 109° |
| 2026-05-08 07:34 | 44.74322 | 25.06061 | 10430 ft | 324 kts | 110° |
| 2026-05-08 07:34 | 44.73607 | 25.09016 | 10278 ft | 314 kts | 110° |
| 2026-05-08 07:34 | 44.72915 | 25.11869 | 10151 ft | 303 kts | 110° |
| 2026-05-08 07:35 | 44.72244 | 25.14628 | 9980 ft | 294 kts | 110° |
| 2026-05-08 07:35 | 44.71585 | 25.17338 | 9658 ft | 291 kts | 110° |
| 2026-05-08 07:35 | 44.70931 | 25.20024 | 9343 ft | 288 kts | 110° |
| 2026-05-08 07:35 | 44.70292 | 25.22646 | 9036 ft | 285 kts | 110° |
| 2026-05-08 07:36 | 44.69652 | 25.25265 | 8736 ft | 281 kts | 110° |
| 2026-05-08 07:36 | 44.69020 | 25.27854 | 8428 ft | 278 kts | 110° |
| 2026-05-08 07:36 | 44.68396 | 25.30405 | 8141 ft | 274 kts | 110° |
| 2026-05-08 07:36 | 44.67781 | 25.32916 | 7846 ft | 270 kts | 110° |
| 2026-05-08 07:37 | 44.67172 | 25.35400 | 7555 ft | 266 kts | 110° |
| 2026-05-08 07:37 | 44.66582 | 25.37807 | 7281 ft | 263 kts | 110° |
| 2026-05-08 07:37 | 44.65982 | 25.40250 | 7017 ft | 266 kts | 110° |
| 2026-05-08 07:37 | 44.65366 | 25.42749 | 6728 ft | 274 kts | 110° |
| 2026-05-08 07:38 | 44.64739 | 25.45285 | 6426 ft | 275 kts | 109° |
| 2026-05-08 07:38 | 44.64119 | 25.47824 | 6092 ft | 273 kts | 109° |
| 2026-05-08 07:38 | 44.63505 | 25.50332 | 5806 ft | 270 kts | 110° |
| 2026-05-08 07:38 | 44.62886 | 25.52817 | 5500 ft | 268 kts | 110° |
| 2026-05-08 07:39 | 44.62273 | 25.55284 | 5209 ft | 267 kts | 110° |
| 2026-05-08 07:39 | 44.61670 | 25.57723 | 4931 ft | 270 kts | 110° |
| 2026-05-08 07:39 | 44.61061 | 25.60180 | 4772 ft | 261 kts | 110° |
| 2026-05-08 07:39 | 44.60473 | 25.62553 | 4704 ft | 254 kts | 110° |
| 2026-05-08 07:40 | 44.59900 | 25.64865 | 4625 ft | 247 kts | 110° |
| 2026-05-08 07:40 | 44.59347 | 25.67097 | 4556 ft | 241 kts | 110° |
| 2026-05-08 07:40 | 44.58800 | 25.69285 | 4496 ft | 234 kts | 110° |
| 2026-05-08 07:40 | 44.58274 | 25.71396 | 4512 ft | 223 kts | 109° |
| 2026-05-08 07:41 | 44.57779 | 25.73405 | 4446 ft | 212 kts | 110° |
| 2026-05-08 07:41 | 44.57316 | 25.75267 | 4294 ft | 199 kts | 110° |
| 2026-05-08 07:41 | 44.56867 | 25.77063 | 4069 ft | 190 kts | 110° |
| 2026-05-08 07:41 | 44.56434 | 25.78791 | 3739 ft | 186 kts | 110° |
| 2026-05-08 07:42 | 44.56011 | 25.80493 | 3294 ft | 185 kts | 110° |
| 2026-05-08 07:42 | 44.55765 | 25.82242 | 2855 ft | 184 kts | 88° |
| 2026-05-08 07:42 | 44.55845 | 25.83997 | 2534 ft | 175 kts | 86° |
| 2026-05-08 07:42 | 44.55955 | 25.85719 | 2530 ft | 182 kts | 86° |
| 2026-05-08 07:43 | 44.56067 | 25.87478 | 2475 ft | 180 kts | 84° |
| 2026-05-08 07:43 | 44.56201 | 25.89236 | 2494 ft | 182 kts | 84° |
| 2026-05-08 07:43 | 44.56335 | 25.90957 | 2490 ft | 173 kts | 84° |
| 2026-05-08 07:43 | 44.56465 | 25.92622 | 2522 ft | 171 kts | 84° |
| 2026-05-08 07:44 | 44.56597 | 25.94368 | 2258 ft | 179 kts | 85° |
| 2026-05-08 07:44 | 44.56725 | 25.96039 | 2048 ft | 171 kts | 85° |
| 2026-05-08 07:44 | 44.56843 | 25.97625 | 1830 ft | 156 kts | 85° |
| 2026-05-08 07:44 | 44.56953 | 25.99069 | 1638 ft | 146 kts | 85° |
| 2026-05-08 07:45 | 44.57060 | 26.00489 | 1446 ft | 146 kts | 85° |
| 2026-05-08 07:45 | 44.57171 | 26.01921 | 1318 ft | 148 kts | 85° |
| 2026-05-08 07:45 | 44.57276 | 26.03361 | 1161 ft | 149 kts | 85° |
| 2026-05-08 07:45 | 44.57383 | 26.04808 | 937 ft | 148 kts | 84° |
| 2026-05-08 07:46 | 44.57497 | 26.06219 | 668 ft | 142 kts | 84° |
| 2026-05-08 07:46 | 44.57599 | 26.07587 | 462 ft | 141 kts | 83° |
| 2026-05-08 07:46 | 44.57699 | 26.08942 | 325 ft | 140 kts | 83° |
| 2026-05-08 07:46 | 44.57794 | 26.10192 | 326 ft | 120 kts | 84° |
| 2026-05-08 07:47 | 44.57875 | 26.11260 | 325 ft | 89 kts | 84° |
| 2026-05-08 07:47 | 44.57930 | 26.11997 | 325 ft | 67 kts | 84° |
| 2026-05-08 07:47 | 44.57967 | 26.12488 | 327 ft | 35 kts | 84° |
| 2026-05-08 07:47 | 44.57963 | 26.12769 | 326 ft | 26 kts | 126° |
| 2026-05-08 07:48 | 44.57823 | 26.12830 | 324 ft | 15 kts | 223° |
| 2026-05-08 07:48 | 44.57805 | 26.12683 | 326 ft | 16 kts | 266° |
| 2026-05-08 07:48 | 44.57798 | 26.12532 | 323 ft | 16 kts | 266° |
| 2026-05-08 07:48 | 44.57787 | 26.12381 | 323 ft | 16 kts | 263° |
| 2026-05-08 07:49 | 44.57774 | 26.12231 | 324 ft | 16 kts | 263° |
| 2026-05-08 07:49 | 44.57763 | 26.12080 | 326 ft | 16 kts | 265° |
| 2026-05-08 07:49 | 44.57753 | 26.11929 | 323 ft | 16 kts | 263° |
| 2026-05-08 07:49 | 44.57741 | 26.11781 | 325 ft | 16 kts | 264° |
| 2026-05-08 07:50 | 44.57728 | 26.11613 | 323 ft | 20 kts | 264° |
| 2026-05-08 07:50 | 44.57711 | 26.11377 | 325 ft | 26 kts | 264° |
| 2026-05-08 07:50 | 44.57691 | 26.11124 | 327 ft | 26 kts | 264° |
| 2026-05-08 07:50 | 44.57672 | 26.10870 | 327 ft | 26 kts | 264° |
| 2026-05-08 07:51 | 44.57653 | 26.10617 | 322 ft | 26 kts | 264° |
| 2026-05-08 07:51 | 44.57637 | 26.10406 | 324 ft | 19 kts | 264° |
| 2026-05-08 07:51 | 44.57623 | 26.10219 | 324 ft | 18 kts | 264° |
| 2026-05-08 07:51 | 44.57612 | 26.10068 | 323 ft | 14 kts | 264° |
| 2026-05-08 07:52 | 44.57602 | 26.09934 | 327 ft | 14 kts | 264° |
| 2026-05-08 07:52 | 44.57547 | 26.09841 | 324 ft | 14 kts | 189° |
| 2026-05-08 07:52 | 44.57483 | 26.09844 | 324 ft | 14 kts | 174° |
| 2026-05-08 07:52 | 44.57386 | 26.09858 | 325 ft | 14 kts | 174° |
| 2026-05-08 07:53 | 44.57288 | 26.09872 | 323 ft | 14 kts | 174° |
| 2026-05-08 07:53 | 44.57191 | 26.09886 | 322 ft | 14 kts | 174° |
| 2026-05-08 07:53 | 44.57094 | 26.09899 | 326 ft | 14 kts | 174° |
| 2026-05-08 07:53 | 44.57025 | 26.09972 | 324 ft | 14 kts | 96° |
| 2026-05-08 07:54 | 44.57037 | 26.10110 | 323 ft | 14 kts | 83° |
| 2026-05-08 07:54 | 44.57047 | 26.10228 | 324 ft | 9 kts | 86° |
| 2026-05-08 07:54 | 44.57000 | 26.10274 | 323 ft | 8 kts | 174° |
| 2026-05-08 07:54 | 44.56983 | 26.10276 | 323 ft | 5 kts | 174° |
| 2026-05-08 07:55 | 44.56971 | 26.10278 | 324 ft | 1 kts | 174° |
| 2026-05-08 07:55 | 44.56965 | 26.10279 | 325 ft | 0 kts | 174° |